Home   Weather   Little Europa Point   Past weeks
Flag for Gibraltar

Past Weather in Little Europa Point, Gibraltar, Gibraltar — Yesterday and Last 2 Weeks

Currently: 72 °F. Mild. (Weather station: Gibraltar Airport, Gibraltar). See more current weather

Past Weather in Little Europa Point — Graph

°F

Little Europa Point Temperature Yesterday

Maximum temperature yesterday: 81 °F (at 3:50 pm)
Minimum temperature yesterday: 66 °F (at 5:50 am)
Average temperature yesterday: 73 °F

High & Low Weather Summary for the Past Weeks

 TemperatureHumidityPressure
High81 °F (Jun 14, 3:50 pm)100% (Jun 11, 7:20 am)30.21 "Hg (Jun 11, 7:20 am)
Low63 °F (Jun 2, 5:50 am)44% (Jun 2, 4:50 pm)29.89 "Hg (May 31, 6:50 pm)
Average71 °F76%30.04 "Hg
* Reported May 31 12:50 am — Jun 15 12:50 am, Little Europa Point. Weather by CustomWeather, © 2021

Note: Actual official high and low records may vary slightly from our data, if they occured in-between our weather recording intervals... More about our weather records

Little Europa Point Weather History for the Previous 24 Hours

Scroll right to see more
 ConditionsComfort  
Time TempWeatherWind HumidityBarometerVisibility
12:50 am
Tue, Jun 15
72 °FMild.9 mph73%30.01 "HgN/A
12:20 am73 °FMild.N/A69%30.04 "HgN/A
11:50 pm
Mon, Jun 14
73 °FMild.N/A69%30.04 "HgN/A
11:20 pm73 °FMild.N/A69%30.01 "HgN/A
10:50 pm75 °FMild.N/A65%30.01 "HgN/A
10:20 pm75 °FMild.N/A65%30.01 "HgN/A
9:50 pm75 °FFog.N/A61%30.01 "HgN/A
9:20 pm75 °FSunny.13 mph61%30.01 "Hg10 mi
8:50 pm77 °FSunny.12 mph57%30.01 "Hg10 mi
8:20 pm77 °FSunny.12 mph57%29.98 "Hg10 mi
7:50 pm77 °FSunny.12 mph57%29.98 "Hg10 mi
7:22 pm77 °FSunny.13 mph57%30.01 "Hg10 mi
6:50 pm77 °FSunny.14 mph61%30.01 "Hg10 mi
6:21 pm79 °FSunny.13 mph58%30.01 "Hg10 mi
5:50 pm79 °FSunny.10 mph54%30.01 "Hg10 mi
5:20 pm79 °FSunny.12 mph58%30.01 "Hg10 mi
4:50 pm79 °FSunny.9 mph54%30.04 "Hg10 mi
4:20 pm81 °FSunny.8 mph51%30.04 "Hg10 mi
3:50 pm81 °FSunny.7 mph51%30.04 "Hg10 mi
3:20 pm79 °FSunny.6 mph54%30.04 "Hg10 mi
2:50 pm79 °FSunny.2 mph51%30.07 "Hg10 mi
2:20 pm79 °FSunny.5 mph58%30.07 "Hg10 mi
1:50 pm79 °FSunny.5 mph58%30.07 "Hg10 mi
1:23 pm77 °FSunny.6 mph61%30.07 "Hg10 mi
12:50 pm77 °FSunny.3 mph57%30.07 "Hg10 mi
12:20 pm75 °FSunny.9 mph65%30.07 "Hg10 mi
11:50 am73 °FSunny.9 mph69%30.09 "Hg10 mi
11:22 am75 °FSunny.5 mph69%30.07 "Hg10 mi
10:50 am73 °FSunny.3 mph74%30.09 "Hg10 mi
10:23 am72 °FPassing clouds.3 mph78%30.09 "HgN/A
9:50 am70 °FPassing clouds.2 mph78%30.09 "HgN/A
9:21 am68 °FPassing clouds.3 mph83%30.09 "HgN/A
8:50 am68 °FPassing clouds.3 mph83%30.09 "HgN/A
8:20 am66 °FFog.N/A88%30.07 "HgN/A
7:50 am66 °FPassing clouds.5 mph88%30.07 "HgN/A
7:20 am66 °FMild.N/A88%30.07 "HgN/A
6:50 am66 °FFog.5 mph88%30.07 "HgN/A
6:20 am68 °FMild.N/A83%30.07 "HgN/A
5:50 am66 °FPassing clouds.3 mph88%30.07 "HgN/A
5:20 am68 °FPassing clouds.N/A83%30.07 "HgN/A
4:50 am68 °FPassing clouds.3 mph83%30.07 "HgN/A
4:20 am68 °FPassing clouds.N/A83%30.07 "HgN/A
3:50 am68 °FPassing clouds.2 mph83%30.07 "HgN/A
3:20 am70 °FOvercast.N/A83%30.07 "HgN/A
2:50 am70 °FOvercast.3 mph83%30.09 "HgN/A
2:20 am70 °FFog.N/A83%30.09 "HgN/A
Weather by CustomWeather, © 2021

See weather overview